sensor_id;sensor_type;location;lat;lon;timestamp;pressure;altitude;pressure_sealevel;temperature;humidity
68793;BME280;55778;54.346;10.210;2022-11-15T00:00:08;100855.94;;;4.90;100.00
68793;BME280;55778;54.346;10.210;2022-11-15T00:02:33;100853.91;;;4.93;100.00
68793;BME280;55778;54.346;10.210;2022-11-15T00:04:59;100848.41;;;4.95;100.00
68793;BME280;55778;54.346;10.210;2022-11-15T00:07:24;100842.25;;;5.05;100.00
68793;BME280;55778;54.346;10.210;2022-11-15T00:09:50;100850.00;;;5.10;100.00
68793;BME280;55778;54.346;10.210;2022-11-15T00:12:15;100854.53;;;5.09;100.00
68793;BME280;55778;54.346;10.210;2022-11-15T00:14:41;100845.38;;;5.12;100.00
68793;BME280;55778;54.346;10.210;2022-11-15T00:17:06;100833.38;;;5.03;100.00
68793;BME280;55778;54.346;10.210;2022-11-15T00:19:31;100844.94;;;5.05;100.00
68793;BME280;55778;54.346;10.210;2022-11-15T00:21:57;100840.94;;;5.11;100.00
68793;BME280;55778;54.346;10.210;2022-11-15T00:24:22;100838.13;;;5.12;100.00
68793;BME280;55778;54.346;10.210;2022-11-15T00:26:48;100836.06;;;5.16;100.00
68793;BME280;55778;54.346;10.210;2022-11-15T00:29:13;100836.19;;;5.14;100.00
68793;BME280;55778;54.346;10.210;2022-11-15T00:31:39;100836.19;;;5.14;100.00
68793;BME280;55778;54.346;10.210;2022-11-15T00:34:04;100833.59;;;5.13;100.00
68793;BME280;55778;54.346;10.210;2022-11-15T00:36:32;100831.88;;;5.12;100.00
68793;BME280;55778;54.346;10.210;2022-11-15T00:38:58;100825.38;;;5.14;100.00
68793;BME280;55778;54.346;10.210;2022-11-15T00:41:23;100832.72;;;5.12;100.00
68793;BME280;55778;54.346;10.210;2022-11-15T00:43:52;100830.91;;;5.13;100.00
68793;BME280;55778;54.346;10.210;2022-11-15T00:46:17;100832.50;;;5.15;100.00
68793;BME280;55778;54.346;10.210;2022-11-15T00:48:43;100835.97;;;5.17;100.00
68793;BME280;55778;54.346;10.210;2022-11-15T00:51:08;100830.56;;;5.17;100.00
68793;BME280;55778;54.346;10.210;2022-11-15T00:53:34;100831.19;;;5.21;100.00
68793;BME280;55778;54.346;10.210;2022-11-15T00:55:59;100830.84;;;5.25;100.00
68793;BME280;55778;54.346;10.210;2022-11-15T00:58:25;100819.00;;;5.28;100.00
68793;BME280;55778;54.346;10.210;2022-11-15T01:00:50;100822.31;;;5.31;100.00
68793;BME280;55778;54.346;10.210;2022-11-15T01:03:16;100823.63;;;5.38;100.00
68793;BME280;55778;54.346;10.210;2022-11-15T01:05:41;100818.44;;;5.35;100.00
68793;BME280;55778;54.346;10.210;2022-11-15T01:08:12;100813.88;;;5.36;100.00
68793;BME280;55778;54.346;10.210;2022-11-15T01:10:38;100808.34;;;5.37;100.00
68793;BME280;55778;54.346;10.210;2022-11-15T01:13:03;100803.72;;;5.39;100.00
68793;BME280;55778;54.346;10.210;2022-11-15T01:15:28;100806.09;;;5.44;100.00
68793;BME280;55778;54.346;10.210;2022-11-15T01:17:54;100802.63;;;5.42;100.00
68793;BME280;55778;54.346;10.210;2022-11-15T01:20:20;100813.22;;;5.45;100.00
68793;BME280;55778;54.346;10.210;2022-11-15T01:22:45;100814.19;;;5.44;100.00
68793;BME280;55778;54.346;10.210;2022-11-15T01:25:10;100814.53;;;5.39;100.00
68793;BME280;55778;54.346;10.210;2022-11-15T01:27:36;100808.91;;;5.42;100.00
68793;BME280;55778;54.346;10.210;2022-11-15T01:30:01;100811.94;;;5.38;100.00
68793;BME280;55778;54.346;10.210;2022-11-15T01:32:27;100813.03;;;5.35;100.00
68793;BME280;55778;54.346;10.210;2022-11-15T01:34:52;100814.09;;;5.33;100.00
68793;BME280;55778;54.346;10.210;2022-11-15T01:37:18;100813.47;;;5.29;100.00
68793;BME280;55778;54.346;10.210;2022-11-15T01:39:43;100806.31;;;5.28;100.00
68793;BME280;55778;54.346;10.210;2022-11-15T01:42:12;100796.63;;;5.26;100.00
68793;BME280;55778;54.346;10.210;2022-11-15T01:44:44;100794.69;;;5.28;100.00
68793;BME280;55778;54.346;10.210;2022-11-15T01:47:31;100798.22;;;5.28;100.00
68793;BME280;55778;54.346;10.210;2022-11-15T01:50:01;100786.34;;;5.31;100.00
68793;BME280;55778;54.346;10.210;2022-11-15T01:52:30;100795.06;;;5.34;100.00
68793;BME280;55778;54.346;10.210;2022-11-15T01:57:26;100784.38;;;5.33;100.00
68793;BME280;55778;54.346;10.210;2022-11-15T01:59:51;100778.84;;;5.34;100.00
68793;BME280;55778;54.346;10.210;2022-11-15T02:02:20;100772.63;;;5.34;100.00
68793;BME280;55778;54.346;10.210;2022-11-15T02:04:46;100771.53;;;5.36;100.00
68793;BME280;55778;54.346;10.210;2022-11-15T02:07:15;100765.13;;;5.37;100.00
68793;BME280;55778;54.346;10.210;2022-11-15T02:09:42;100763.41;;;5.36;100.00
68793;BME280;55778;54.346;10.210;2022-11-15T02:12:09;100754.66;;;5.33;100.00
68793;BME280;55778;54.346;10.210;2022-11-15T02:14:39;100752.94;;;5.32;100.00
68793;BME280;55778;54.346;10.210;2022-11-15T02:17:26;100768.38;;;5.30;100.00
68793;BME280;55778;54.346;10.210;2022-11-15T02:23:13;100762.59;;;5.23;100.00
68793;BME280;55778;54.346;10.210;2022-11-15T02:34:09;100771.75;;;5.21;100.00
68793;BME280;55778;54.346;10.210;2022-11-15T02:36:53;100770.91;;;5.20;100.00
68793;BME280;55778;54.346;10.210;2022-11-15T02:39:34;100763.75;;;5.19;100.00
68793;BME280;55778;54.346;10.210;2022-11-15T02:42:05;100769.28;;;5.18;100.00
68793;BME280;55778;54.346;10.210;2022-11-15T02:44:53;100771.66;;;5.22;100.00
68793;BME280;55778;54.346;10.210;2022-11-15T02:47:22;100773.50;;;5.22;100.00
68793;BME280;55778;54.346;10.210;2022-11-15T02:49:52;100769.16;;;5.19;100.00
68793;BME280;55778;54.346;10.210;2022-11-15T02:52:23;100763.25;;;5.14;100.00
68793;BME280;55778;54.346;10.210;2022-11-15T02:54:55;100758.09;;;5.11;100.00
68793;BME280;55778;54.346;10.210;2022-11-15T02:58:12;100754.50;;;5.11;100.00
68793;BME280;55778;54.346;10.210;2022-11-15T03:00:18;100754.63;;;5.09;100.00
68793;BME280;55778;54.346;10.210;2022-11-15T03:12:58;100753.56;;;4.99;100.00
68793;BME280;55778;54.346;10.210;2022-11-15T03:15:37;100748.28;;;4.98;100.00
68793;BME280;55778;54.346;10.210;2022-11-15T03:18:26;100745.03;;;4.93;100.00
68793;BME280;55778;54.346;10.210;2022-11-15T03:20:55;100744.19;;;4.92;100.00
68793;BME280;55778;54.346;10.210;2022-11-15T03:23:23;100741.72;;;4.89;100.00
68793;BME280;55778;54.346;10.210;2022-11-15T03:25:50;100744.53;;;4.88;100.00
68793;BME280;55778;54.346;10.210;2022-11-15T03:28:21;100741.16;;;4.84;100.00
68793;BME280;55778;54.346;10.210;2022-11-15T03:30:47;100743.09;;;4.82;100.00
68793;BME280;55778;54.346;10.210;2022-11-15T03:33:15;100747.66;;;4.82;100.00
68793;BME280;55778;54.346;10.210;2022-11-15T03:35:44;100744.19;;;4.80;100.00
68793;BME280;55778;54.346;10.210;2022-11-15T03:38:26;100743.31;;;4.79;100.00
68793;BME280;55778;54.346;10.210;2022-11-15T03:41:06;100729.72;;;4.81;100.00
68793;BME280;55778;54.346;10.210;2022-11-15T03:46:16;100734.50;;;4.77;100.00
68793;BME280;55778;54.346;10.210;2022-11-15T03:48:56;100723.81;;;4.76;100.00
68793;BME280;55778;54.346;10.210;2022-11-15T03:51:24;100719.59;;;4.72;100.00
68793;BME280;55778;54.346;10.210;2022-11-15T03:53:50;100726.72;;;4.73;100.00
68793;BME280;55778;54.346;10.210;2022-11-15T03:56:15;100717.84;;;4.71;100.00
68793;BME280;55778;54.346;10.210;2022-11-15T03:58:41;100727.16;;;4.67;100.00
68793;BME280;55778;54.346;10.210;2022-11-15T04:01:06;100731.69;;;4.66;100.00
68793;BME280;55778;54.346;10.210;2022-11-15T04:03:32;100731.69;;;4.66;100.00
68793;BME280;55778;54.346;10.210;2022-11-15T04:05:57;100734.81;;;4.60;100.00
68793;BME280;55778;54.346;10.210;2022-11-15T04:08:22;100739.25;;;4.61;100.00
68793;BME280;55778;54.346;10.210;2022-11-15T04:10:49;100742.81;;;4.62;100.00
68793;BME280;55778;54.346;10.210;2022-11-15T04:13:14;100732.00;;;4.62;100.00
68793;BME280;55778;54.346;10.210;2022-11-15T04:15:39;100737.63;;;4.59;100.00
68793;BME280;55778;54.346;10.210;2022-11-15T04:18:05;100732.34;;;4.57;100.00
68793;BME280;55778;54.346;10.210;2022-11-15T04:20:31;100732.56;;;4.54;100.00
68793;BME280;55778;54.346;10.210;2022-11-15T04:23:18;100739.91;;;4.52;100.00
68793;BME280;55778;54.346;10.210;2022-11-15T04:26:04;100734.63;;;4.51;100.00
68793;BME280;55778;54.346;10.210;2022-11-15T04:28:30;100733.84;;;4.49;100.00
68793;BME280;55778;54.346;10.210;2022-11-15T04:30:56;100732.34;;;4.45;100.00
68793;BME280;55778;54.346;10.210;2022-11-15T04:33:22;100733.41;;;4.42;100.00
68793;BME280;55778;54.346;10.210;2022-11-15T04:35:47;100729.00;;;4.41;100.00
68793;BME280;55778;54.346;10.210;2022-11-15T04:38:34;100726.41;;;4.40;100.00
68793;BME280;55778;54.346;10.210;2022-11-15T04:41:00;100730.19;;;4.37;100.00
68793;BME280;55778;54.346;10.210;2022-11-15T04:43:25;100726.00;;;4.33;100.00
68793;BME280;55778;54.346;10.210;2022-11-15T04:45:51;100739.69;;;4.30;100.00
68793;BME280;55778;54.346;10.210;2022-11-15T04:48:16;100739.03;;;4.27;100.00
68793;BME280;55778;54.346;10.210;2022-11-15T04:50:42;100744.53;;;4.25;100.00
68793;BME280;55778;54.346;10.210;2022-11-15T04:53:07;100747.34;;;4.24;100.00
68793;BME280;55778;54.346;10.210;2022-11-15T04:55:33;100743.66;;;4.25;100.00
68793;BME280;55778;54.346;10.210;2022-11-15T04:57:59;100746.34;;;4.25;100.00
68793;BME280;55778;54.346;10.210;2022-11-15T05:00:26;100742.81;;;4.24;100.00
68793;BME280;55778;54.346;10.210;2022-11-15T05:02:52;100744.53;;;4.25;100.00
68793;BME280;55778;54.346;10.210;2022-11-15T05:05:36;100742.03;;;4.22;100.00
68793;BME280;55778;54.346;10.210;2022-11-15T05:08:02;100751.00;;;4.23;100.00
68793;BME280;55778;54.346;10.210;2022-11-15T05:10:27;100751.84;;;4.23;100.00
68793;BME280;55778;54.346;10.210;2022-11-15T05:12:53;100743.75;;;4.23;100.00
68793;BME280;55778;54.346;10.210;2022-11-15T05:15:18;100744.75;;;4.22;100.00
68793;BME280;55778;54.346;10.210;2022-11-15T05:17:44;100740.13;;;4.24;100.00
68793;BME280;55778;54.346;10.210;2022-11-15T05:20:10;100741.84;;;4.25;100.00
68793;BME280;55778;54.346;10.210;2022-11-15T05:22:35;100745.41;;;4.26;100.00
68793;BME280;55778;54.346;10.210;2022-11-15T05:25:01;100741.50;;;4.30;100.00
68793;BME280;55778;54.346;10.210;2022-11-15T05:27:26;100741.72;;;4.27;100.00
68793;BME280;55778;54.346;10.210;2022-11-15T05:29:52;100745.50;;;4.24;100.00
68793;BME280;55778;54.346;10.210;2022-11-15T05:32:21;100751.53;;;4.28;100.00
68793;BME280;55778;54.346;10.210;2022-11-15T05:34:46;100750.59;;;4.29;100.00
68793;BME280;55778;54.346;10.210;2022-11-15T05:37:13;100756.09;;;4.27;100.00
68793;BME280;55778;54.346;10.210;2022-11-15T05:39:39;100751.66;;;4.26;100.00
68793;BME280;55778;54.346;10.210;2022-11-15T05:42:10;100753.91;;;4.20;100.00
68793;BME280;55778;54.346;10.210;2022-11-15T05:44:38;100758.34;;;4.21;100.00
68793;BME280;55778;54.346;10.210;2022-11-15T05:47:08;100747.22;;;4.25;100.00
68793;BME280;55778;54.346;10.210;2022-11-15T05:49:35;100753.69;;;4.35;100.00
68793;BME280;55778;54.346;10.210;2022-11-15T05:52:05;100761.16;;;4.44;100.00
68793;BME280;55778;54.346;10.210;2022-11-15T05:54:33;100742.41;;;4.55;100.00
68793;BME280;55778;54.346;10.210;2022-11-15T05:56:59;100739.25;;;4.61;100.00
68793;BME280;55778;54.346;10.210;2022-11-15T05:59:25;100739.03;;;4.64;100.00
68793;BME280;55778;54.346;10.210;2022-11-15T06:01:51;100739.66;;;4.68;100.00
68793;BME280;55778;54.346;10.210;2022-11-15T06:04:16;100734.06;;;4.83;100.00
68793;BME280;55778;54.346;10.210;2022-11-15T06:06:42;100729.16;;;4.88;100.00
68793;BME280;55778;54.346;10.210;2022-11-15T06:09:07;100728.09;;;4.91;100.00
68793;BME280;55778;54.346;10.210;2022-11-15T06:11:33;100725.19;;;4.81;100.00
68793;BME280;55778;54.346;10.210;2022-11-15T06:13:58;100723.38;;;4.82;100.00
68793;BME280;55778;54.346;10.210;2022-11-15T06:16:23;100721.81;;;5.03;100.00
68793;BME280;55778;54.346;10.210;2022-11-15T06:18:49;100728.50;;;4.97;100.00
68793;BME280;55778;54.346;10.210;2022-11-15T06:21:14;100724.28;;;5.06;100.00
68793;BME280;55778;54.346;10.210;2022-11-15T06:23:40;100727.69;;;5.20;100.00
68793;BME280;55778;54.346;10.210;2022-11-15T06:26:05;100727.25;;;5.26;100.00
68793;BME280;55778;54.346;10.210;2022-11-15T06:28:31;100731.03;;;5.24;100.00
68793;BME280;55778;54.346;10.210;2022-11-15T06:33:30;100734.16;;;5.30;100.00
68793;BME280;55778;54.346;10.210;2022-11-15T06:35:55;100731.78;;;5.26;100.00
68793;BME280;55778;54.346;10.210;2022-11-15T06:38:23;100746.56;;;5.33;100.00
68793;BME280;55778;54.346;10.210;2022-11-15T06:40:49;100748.00;;;5.26;100.00
68793;BME280;55778;54.346;10.210;2022-11-15T06:43:14;100740.22;;;5.21;100.00
68793;BME280;55778;54.346;10.210;2022-11-15T06:45:40;100747.44;;;5.21;100.00
68793;BME280;55778;54.346;10.210;2022-11-15T06:48:05;100740.97;;;5.23;100.00
68793;BME280;55778;54.346;10.210;2022-11-15T06:50:31;100736.31;;;5.25;100.00
68793;BME280;55778;54.346;10.210;2022-11-15T06:53:03;100746.09;;;5.39;100.00
68793;BME280;55778;54.346;10.210;2022-11-15T06:55:29;100751.47;;;5.51;100.00
68793;BME280;55778;54.346;10.210;2022-11-15T06:57:55;100760.78;;;5.47;100.00
68793;BME280;55778;54.346;10.210;2022-11-15T07:00:21;100764.53;;;5.57;100.00
68793;BME280;55778;54.346;10.210;2022-11-15T07:02:47;100761.72;;;5.59;100.00
68793;BME280;55778;54.346;10.210;2022-11-15T07:05:13;100761.25;;;5.65;100.00
68793;BME280;55778;54.346;10.210;2022-11-15T07:07:39;100763.50;;;5.71;100.00
68793;BME280;55778;54.346;10.210;2022-11-15T07:10:06;100770.63;;;5.72;100.00
68793;BME280;55778;54.346;10.210;2022-11-15T07:12:32;100759.47;;;5.76;100.00
68793;BME280;55778;54.346;10.210;2022-11-15T07:14:57;100773.19;;;5.86;100.00
68793;BME280;55778;54.346;10.210;2022-11-15T07:17:23;100770.66;;;5.95;100.00
68793;BME280;55778;54.346;10.210;2022-11-15T07:19:48;100771.78;;;6.04;100.00
68793;BME280;55778;54.346;10.210;2022-11-15T07:22:14;100775.81;;;5.98;100.00
68793;BME280;55778;54.346;10.210;2022-11-15T07:24:39;100787.16;;;6.03;100.00
68793;BME280;55778;54.346;10.210;2022-11-15T07:27:04;100781.78;;;6.14;100.00
68793;BME280;55778;54.346;10.210;2022-11-15T07:29:30;100787.72;;;6.20;100.00
68793;BME280;55778;54.346;10.210;2022-11-15T07:31:55;100782.31;;;6.20;100.00
68793;BME280;55778;54.346;10.210;2022-11-15T07:34:24;100778.50;;;6.22;100.00
68793;BME280;55778;54.346;10.210;2022-11-15T07:36:49;100786.38;;;6.25;100.00
68793;BME280;55778;54.346;10.210;2022-11-15T07:39:15;100791.53;;;6.28;100.00
68793;BME280;55778;54.346;10.210;2022-11-15T07:41:40;100794.78;;;6.33;100.00
68793;BME280;55778;54.346;10.210;2022-11-15T07:44:06;100800.06;;;6.35;100.00
68793;BME280;55778;54.346;10.210;2022-11-15T07:46:32;100792.69;;;6.37;100.00
68793;BME280;55778;54.346;10.210;2022-11-15T07:48:57;100784.31;;;6.40;100.00
68793;BME280;55778;54.346;10.210;2022-11-15T07:51:23;100796.66;;;6.44;100.00
68793;BME280;55778;54.346;10.210;2022-11-15T07:53:48;100789.13;;;6.47;100.00
68793;BME280;55778;54.346;10.210;2022-11-15T07:56:14;100791.72;;;6.49;100.00
68793;BME280;55778;54.346;10.210;2022-11-15T07:58:39;100793.47;;;6.50;100.00
68793;BME280;55778;54.346;10.210;2022-11-15T08:01:06;100797.41;;;6.57;100.00
68793;BME280;55778;54.346;10.210;2022-11-15T08:03:32;100792.00;;;6.57;100.00
68793;BME280;55778;54.346;10.210;2022-11-15T08:05:58;100791.53;;;6.63;100.00
68793;BME280;55778;54.346;10.210;2022-11-15T08:08:24;100784.88;;;6.67;100.00
68793;BME280;55778;54.346;10.210;2022-11-15T08:10:49;100783.03;;;6.67;100.00
68793;BME280;55778;54.346;10.210;2022-11-15T08:13:15;100776.50;;;6.70;100.00
68793;BME280;55778;54.346;10.210;2022-11-15T08:15:41;100781.06;;;6.69;100.00
68793;BME280;55778;54.346;10.210;2022-11-15T08:18:11;100777.88;;;6.75;100.00
68793;BME280;55778;54.346;10.210;2022-11-15T08:20:37;100782.56;;;6.84;100.00
68793;BME280;55778;54.346;10.210;2022-11-15T08:23:03;100782.56;;;6.84;100.00
68793;BME280;55778;54.346;10.210;2022-11-15T08:25:31;100787.59;;;6.89;100.00
68793;BME280;55778;54.346;10.210;2022-11-15T08:28:02;100782.81;;;6.92;100.00
68793;BME280;55778;54.346;10.210;2022-11-15T08:30:29;100778.16;;;6.94;100.00
68793;BME280;55778;54.346;10.210;2022-11-15T08:32:57;100785.03;;;6.98;100.00
68793;BME280;55778;54.346;10.210;2022-11-15T08:35:23;100780.22;;;7.02;100.00
68793;BME280;55778;54.346;10.210;2022-11-15T08:37:49;100776.56;;;7.03;100.00
68793;BME280;55778;54.346;10.210;2022-11-15T08:40:23;100776.44;;;7.04;100.00
68793;BME280;55778;54.346;10.210;2022-11-15T08:42:48;100788.50;;;7.11;100.00
68793;BME280;55778;54.346;10.210;2022-11-15T08:45:14;100780.13;;;7.14;100.00
68793;BME280;55778;54.346;10.210;2022-11-15T08:47:40;100786.16;;;7.18;100.00
68793;BME280;55778;54.346;10.210;2022-11-15T08:50:06;100785.41;;;7.27;100.00
68793;BME280;55778;54.346;10.210;2022-11-15T08:52:32;100787.25;;;7.26;100.00
68793;BME280;55778;54.346;10.210;2022-11-15T08:54:57;100784.06;;;7.32;100.00
68793;BME280;55778;54.346;10.210;2022-11-15T08:57:23;100783.81;;;7.35;100.00
68793;BME280;55778;54.346;10.210;2022-11-15T08:59:49;100780.84;;;7.38;100.00
68793;BME280;55778;54.346;10.210;2022-11-15T09:02:15;100783.56;;;7.38;100.00
68793;BME280;55778;54.346;10.210;2022-11-15T09:04:41;100785.00;;;7.42;100.00
68793;BME280;55778;54.346;10.210;2022-11-15T09:07:09;100777.88;;;7.41;100.00
68793;BME280;55778;54.346;10.210;2022-11-15T09:09:35;100774.03;;;7.44;100.00
68793;BME280;55778;54.346;10.210;2022-11-15T09:12:00;100768.38;;;7.47;100.00
68793;BME280;55778;54.346;10.210;2022-11-15T09:14:26;100770.59;;;7.42;100.00
68793;BME280;55778;54.346;10.210;2022-11-15T09:16:51;100773.41;;;7.51;100.00
68793;BME280;55778;54.346;10.210;2022-11-15T09:19:17;100777.72;;;7.54;100.00
68793;BME280;55778;54.346;10.210;2022-11-15T09:21:42;100777.47;;;7.57;100.00
68793;BME280;55778;54.346;10.210;2022-11-15T09:24:08;100782.00;;;7.67;100.00
68793;BME280;55778;54.346;10.210;2022-11-15T09:26:33;100783.13;;;7.65;100.00
68793;BME280;55778;54.346;10.210;2022-11-15T09:28:59;100785.09;;;7.74;99.79
68793;BME280;55778;54.346;10.210;2022-11-15T09:31:26;100781.38;;;7.75;99.83
68793;BME280;55778;54.346;10.210;2022-11-15T09:33:52;100782.31;;;7.85;99.50
68793;BME280;55778;54.346;10.210;2022-11-15T09:36:18;100776.19;;;7.83;99.86
68793;BME280;55778;54.346;10.210;2022-11-15T09:38:43;100779.72;;;7.94;99.40
68793;BME280;55778;54.346;10.210;2022-11-15T09:41:29;100783.16;;;7.96;98.75
68793;BME280;55778;54.346;10.210;2022-11-15T09:49:57;100785.41;;;7.91;98.70
68793;BME280;55778;54.346;10.210;2022-11-15T09:52:24;100797.44;;;7.98;99.00
68793;BME280;55778;54.346;10.210;2022-11-15T09:54:51;100791.75;;;8.01;98.66
68793;BME280;55778;54.346;10.210;2022-11-15T10:00:04;100784.41;;;7.92;98.50
68793;BME280;55778;54.346;10.210;2022-11-15T10:05:18;100774.78;;;7.99;99.05
68793;BME280;55778;54.346;10.210;2022-11-15T10:08:00;100775.97;;;8.06;98.60
68793;BME280;55778;54.346;10.210;2022-11-15T10:10:43;100771.13;;;8.10;98.45
68793;BME280;55778;54.346;10.210;2022-11-15T10:15:50;100765.94;;;8.07;98.36
68793;BME280;55778;54.346;10.210;2022-11-15T10:20:52;100760.06;;;8.02;98.63
68793;BME280;55778;54.346;10.210;2022-11-15T10:23:21;100754.38;;;8.05;98.92
68793;BME280;55778;54.346;10.210;2022-11-15T10:25:51;100755.06;;;8.18;98.31
68793;BME280;55778;54.346;10.210;2022-11-15T10:28:25;100760.50;;;8.18;98.35
68793;BME280;55778;54.346;10.210;2022-11-15T10:30:54;100748.75;;;8.17;98.13
68793;BME280;55778;54.346;10.210;2022-11-15T10:36:18;100745.78;;;8.20;98.63
68793;BME280;55778;54.346;10.210;2022-11-15T10:41:13;100742.97;;;8.22;98.30
68793;BME280;55778;54.346;10.210;2022-11-15T10:43:40;100741.00;;;8.24;98.55
68793;BME280;55778;54.346;10.210;2022-11-15T10:46:23;100753.56;;;8.25;98.38
68793;BME280;55778;54.346;10.210;2022-11-15T10:48:49;100749.75;;;8.28;98.43
68793;BME280;55778;54.346;10.210;2022-11-15T10:51:28;100756.03;;;8.28;97.87
68793;BME280;55778;54.346;10.210;2022-11-15T10:53:57;100747.75;;;8.30;97.83
68793;BME280;55778;54.346;10.210;2022-11-15T10:56:24;100750.31;;;8.31;97.92
68793;BME280;55778;54.346;10.210;2022-11-15T10:58:54;100755.75;;;8.31;98.15
68793;BME280;55778;54.346;10.210;2022-11-15T11:01:28;100747.63;;;8.31;98.18
68793;BME280;55778;54.346;10.210;2022-11-15T11:06:25;100741.34;;;8.31;98.39
68793;BME280;55778;54.346;10.210;2022-11-15T11:11:20;100732.94;;;8.34;98.44
68793;BME280;55778;54.346;10.210;2022-11-15T11:13:45;100723.91;;;8.33;98.21
68793;BME280;55778;54.346;10.210;2022-11-15T11:27:33;100713.41;;;8.40;98.52
68793;BME280;55778;54.346;10.210;2022-11-15T11:35:28;100713.72;;;8.46;98.28
68793;BME280;55778;54.346;10.210;2022-11-15T11:40:31;100707.00;;;8.50;98.29
68793;BME280;55778;54.346;10.210;2022-11-15T11:43:16;100707.00;;;8.50;98.25
68793;BME280;55778;54.346;10.210;2022-11-15T11:51:05;100698.03;;;8.50;97.84
68793;BME280;55778;54.346;10.210;2022-11-15T11:53:52;100698.16;;;8.48;98.14
68793;BME280;55778;54.346;10.210;2022-11-15T11:56:27;100701.44;;;8.52;98.06
68793;BME280;55778;54.346;10.210;2022-11-15T11:59:07;100689.19;;;8.57;98.38
68793;BME280;55778;54.346;10.210;2022-11-15T12:01:43;100688.66;;;8.63;97.89
68793;BME280;55778;54.346;10.210;2022-11-15T12:04:23;100697.38;;;8.67;97.29
68793;BME280;55778;54.346;10.210;2022-11-15T12:07:07;100691.09;;;8.66;97.64
68793;BME280;55778;54.346;10.210;2022-11-15T12:10:04;100690.72;;;8.71;97.43
68793;BME280;55778;54.346;10.210;2022-11-15T12:15:26;100685.97;;;8.73;97.74
68793;BME280;55778;54.346;10.210;2022-11-15T12:17:55;100687.00;;;8.81;96.89
68793;BME280;55778;54.346;10.210;2022-11-15T12:20:22;100690.66;;;8.91;97.08
68793;BME280;55778;54.346;10.210;2022-11-15T12:23:06;100688.19;;;8.88;96.52
68793;BME280;55778;54.346;10.210;2022-11-15T12:25:52;100695.06;;;8.92;96.93
68793;BME280;55778;54.346;10.210;2022-11-15T12:28:59;100687.06;;;8.91;96.68
68793;BME280;55778;54.346;10.210;2022-11-15T12:36:49;100683.84;;;9.06;95.99
68793;BME280;55778;54.346;10.210;2022-11-15T12:39:16;100674.00;;;9.15;95.97
68793;BME280;55778;54.346;10.210;2022-11-15T12:41:44;100667.69;;;9.14;95.85
68793;BME280;55778;54.346;10.210;2022-11-15T12:47:24;100655.84;;;9.15;95.43
68793;BME280;55778;54.346;10.210;2022-11-15T12:49:50;100657.09;;;9.11;95.66
68793;BME280;55778;54.346;10.210;2022-11-15T12:52:16;100644.09;;;9.15;95.52
68793;BME280;55778;54.346;10.210;2022-11-15T12:54:55;100654.09;;;9.14;95.43
68793;BME280;55778;54.346;10.210;2022-11-15T12:57:33;100653.13;;;9.15;96.25
68793;BME280;55778;54.346;10.210;2022-11-15T13:02:45;100647.53;;;9.26;95.67
68793;BME280;55778;54.346;10.210;2022-11-15T13:17:47;100635.97;;;9.43;95.13
68793;BME280;55778;54.346;10.210;2022-11-15T13:31:02;100636.41;;;9.48;95.26
68793;BME280;55778;54.346;10.210;2022-11-15T13:33:34;100631.69;;;9.50;94.83
68793;BME280;55778;54.346;10.210;2022-11-15T13:36:03;100634.25;;;9.52;95.26
68793;BME280;55778;54.346;10.210;2022-11-15T13:38:33;100640.69;;;9.60;94.90
68793;BME280;55778;54.346;10.210;2022-11-15T13:41:10;100631.81;;;9.58;95.18
68793;BME280;55778;54.346;10.210;2022-11-15T13:43:36;100624.53;;;9.59;95.06
68793;BME280;55778;54.346;10.210;2022-11-15T13:46:21;100620.50;;;9.63;95.00
68793;BME280;55778;54.346;10.210;2022-11-15T13:49:01;100613.78;;;9.67;94.72
68793;BME280;55778;54.346;10.210;2022-11-15T13:51:46;100610.50;;;9.63;95.39
68793;BME280;55778;54.346;10.210;2022-11-15T13:56:44;100596.47;;;9.68;94.43
68793;BME280;55778;54.346;10.210;2022-11-15T13:59:21;100607.63;;;9.65;95.98
68793;BME280;55778;54.346;10.210;2022-11-15T14:01:49;100602.19;;;9.74;95.13
68793;BME280;55778;54.346;10.210;2022-11-15T14:04:19;100596.44;;;9.87;94.21
68793;BME280;55778;54.346;10.210;2022-11-15T14:06:51;100590.28;;;9.85;94.69
68793;BME280;55778;54.346;10.210;2022-11-15T14:09:30;100597.44;;;9.86;94.76
68793;BME280;55778;54.346;10.210;2022-11-15T14:12:00;100591.72;;;9.89;94.62
68793;BME280;55778;54.346;10.210;2022-11-15T14:14:28;100590.28;;;9.85;94.74
68793;BME280;55778;54.346;10.210;2022-11-15T14:17:00;100593.44;;;9.80;94.94
68793;BME280;55778;54.346;10.210;2022-11-15T14:22:13;100591.16;;;9.76;96.29
68793;BME280;55778;54.346;10.210;2022-11-15T14:24:40;100583.41;;;9.81;95.24
68793;BME280;55778;54.346;10.210;2022-11-15T14:27:17;100585.84;;;9.84;95.40
68793;BME280;55778;54.346;10.210;2022-11-15T14:29:45;100577.56;;;9.76;95.62
68793;BME280;55778;54.346;10.210;2022-11-15T14:32:43;100587.56;;;9.75;95.79
68793;BME280;55778;54.346;10.210;2022-11-15T14:35:14;100585.69;;;9.85;95.21
68793;BME280;55778;54.346;10.210;2022-11-15T14:37:39;100582.81;;;9.96;94.81
68793;BME280;55778;54.346;10.210;2022-11-15T14:40:12;100591.81;;;9.97;95.20
68793;BME280;55778;54.346;10.210;2022-11-15T14:42:38;100589.00;;;9.89;95.65
68793;BME280;55778;54.346;10.210;2022-11-15T14:45:11;100592.16;;;9.84;95.92
68793;BME280;55778;54.346;10.210;2022-11-15T14:47:40;100594.44;;;9.79;96.43
68793;BME280;55778;54.346;10.210;2022-11-15T14:50:05;100591.03;;;9.77;96.88
68793;BME280;55778;54.346;10.210;2022-11-15T14:52:32;100586.41;;;9.78;96.75
68793;BME280;55778;54.346;10.210;2022-11-15T14:55:03;100580.81;;;9.79;96.93